Pegasus Peta — V7HR7 — position and weather

sailwx.info

Track history (hours):
 
Tides and Currents Weather Stations Pressure Air Temp Water Temp Dewpoint Dewpoint Depression Visibility Wind Speed Wind Dir Waves Ship Positions

Pegasus Peta

Last reported at 2017-Sep-15 16:02 UTC. Time now 2017-Sep-20 01:57 UTC.
Position N 34°34' E 134°47'.

Length 146 m; draft 7.8 m.

Type: Cargo ship. MMSI: 538005864.

Date/timePositionNaut miles runAvg speedWind from/ knotsBaromVisibWave heightAir tempDewpointWater temp
2017-Sep-15 16:02N 34°34' E 134°47'816.0
2017-Sep-15 15:34N 34°37' E 134°55'116.0
2017-Sep-15 15:30N 34°37' E 134°56'713.3
2017-Sep-15 15:01N 34°36' E 135°04'713.8
2017-Sep-15 14:30N 34°29' E 135°04'815.3
2017-Sep-15 13:59N 34°21' E 135°01'613.2
2017-Sep-15 13:30N 34°15' E 134°60'713.5
2017-Sep-15 13:00N 34°13' E 135°08'1 1.5
2017-Sep-15 12:28N 34°12' E 135°09'0 0.0
2017-Sep-15 11:58N 34°12' E 135°09'0 0.0
2017-Sep-15 11:25N 34°12' E 135°09'0 0.0
2017-Sep-15 10:58N 34°12' E 135°09'0 0.0
2017-Sep-15 10:28N 34°12' E 135°09'0 0.6
2017-Sep-15 10:00N 34°13' E 135°08'3 6.3
2017-Sep-15 09:30N 34°12' E 135°05'1 1.3
2017-Sep-15 09:00N 34°11' E 135°04'3 6.3
2017-Sep-15 08:30N 34°08' E 135°03'816.1
2017-Sep-15 08:00N 34°00' E 135°02'220 5.9
2017-Sep-13 18:42N 34°53' E 139°20'414.5
2017-Sep-13 18:25N 34°56' E 139°25'614.9
2017-Sep-13 18:00N 34°59' E 139°31'714.9
2017-Sep-13 17:30N 35°04' E 139°38'714.7
2017-Sep-13 17:00N 35°09' E 139°44'713.1
2017-Sep-13 16:30N 35°15' E 139°46'611.9
2017-Sep-13 16:01N 35°20' E 139°42'612.4
2017-Sep-13 15:30N 35°26' E 139°42'1 1.8
2017-Sep-13 15:00N 35°26' E 139°41'0 0.0
2017-Sep-13 14:30N 35°26' E 139°41'0 0.0
2017-Sep-13 14:00N 35°26' E 139°41'0 0.0
2017-Sep-13 13:30N 35°26' E 139°41'0 0.0
2017-Sep-13 13:00N 35°26' E 139°41'0 0.0
2017-Sep-13 12:30N 35°26' E 139°41'0 0.0
2017-Sep-13 12:00N 35°26' E 139°41'0 0.0
2017-Sep-13 11:30N 35°26' E 139°41'0 0.0
2017-Sep-13 11:00N 35°26' E 139°41'0 0.0
2017-Sep-13 10:30N 35°26' E 139°41'0 0.0
2017-Sep-13 10:00N 35°26' E 139°41'0 0.0
2017-Sep-13 09:30N 35°26' E 139°41'0 0.0
2017-Sep-13 09:00N 35°26' E 139°41'0 0.0
2017-Sep-13 08:30N 35°26' E 139°41'1 1.2
2017-Sep-13 08:01N 35°27' E 139°41'1 1.9
2017-Sep-13 07:25N 35°26' E 139°42'0 0.2
2017-Sep-13 06:58N 35°26' E 139°42'0 0.0
2017-Sep-13 06:28N 35°26' E 139°42'0 0.0
2017-Sep-13 05:58N 35°26' E 139°42'0 0.1
2017-Sep-13 05:28N 35°26' E 139°42'0 0.0
2017-Sep-13 04:58N 35°26' E 139°42'0 0.0
2017-Sep-13 04:29N 35°26' E 139°42'0 0.0
2017-Sep-13 03:58N 35°26' E 139°42'0 0.0
2017-Sep-13 03:28N 35°26' E 139°42'0 0.0
2017-Sep-13 02:58N 35°26' E 139°42'0 0.0
2017-Sep-13 02:28N 35°26' E 139°42'0 0.0
2017-Sep-13 01:55N 35°26' E 139°42'0 0.0
2017-Sep-13 01:25N 35°26' E 139°42'0 0.0
2017-Sep-13 00:58N 35°26' E 139°42'0 0.0
2017-Sep-13 00:28N 35°26' E 139°42'0 0.0
2017-Sep-12 23:58N 35°26' E 139°42'0 0.0
2017-Sep-12 23:28N 35°26' E 139°42'0 0.1
2017-Sep-12 22:58N 35°26' E 139°42'0 0.0
2017-Sep-12 22:28N 35°26' E 139°42'0 0.0
2017-Sep-12 21:58N 35°26' E 139°42'0 0.0
2017-Sep-12 21:25N 35°26' E 139°42'0 0.0
2017-Sep-12 20:49N 35°26' E 139°42'0 0.0
2017-Sep-12 20:28N 35°26' E 139°42'0 0.0
2017-Sep-12 19:58N 35°26' E 139°42'0 0.0
2017-Sep-12 19:28N 35°26' E 139°42'0 0.1
2017-Sep-12 18:55N 35°26' E 139°42'0 0.0
2017-Sep-12 18:28N 35°26' E 139°42'0 0.1
2017-Sep-12 17:58N 35°26' E 139°42'0 0.1
2017-Sep-12 17:28N 35°26' E 139°42'1 2.9
2017-Sep-12 17:00N 35°26' E 139°44'612.1
2017-Sep-12 16:30N 35°29' E 139°50'612.2
2017-Sep-12 16:00N 35°35' E 139°48'3 6.4
2017-Sep-12 15:30N 35°37' E 139°46'0 0.0
2017-Sep-12 14:59N 35°37' E 139°46'0 0.0
2017-Sep-12 14:29N 35°37' E 139°46'0 0.0
2017-Sep-12 13:56N 35°37' E 139°46'0 0.0
2017-Sep-12 13:26N 35°37' E 139°46'0 0.0
2017-Sep-12 12:50N 35°37' E 139°46'0 0.0
2017-Sep-12 12:26N 35°37' E 139°46'0 0.0
2017-Sep-12 11:56N 35°37' E 139°46'0 0.0
2017-Sep-12 11:29N 35°37' E 139°46'0 0.0
2017-Sep-12 10:56N 35°37' E 139°46'0 0.0
2017-Sep-12 10:29N 35°37' E 139°46'0 0.0
2017-Sep-12 09:56N 35°37' E 139°46'0 0.0
2017-Sep-12 09:26N 35°37' E 139°46'0 0.0
2017-Sep-12 08:56N 35°37' E 139°46'0 0.0
2017-Sep-12 08:26N 35°37' E 139°46'0 0.0
2017-Sep-12 07:59N 35°37' E 139°46'0 0.0
2017-Sep-12 07:29N 35°37' E 139°46'2 4.7
2017-Sep-12 07:00N 35°35' E 139°47'510.8
2017-Sep-12 06:31N 35°32' E 139°52'4 7.1
2017-Sep-12 06:00N 35°28' E 139°51'4 8.8
2017-Sep-12 05:31N 35°25' E 139°48'611.3
2017-Sep-12 05:01N 35°20' E 139°45'510.3
2017-Sep-12 04:31N 35°16' E 139°47'611.4
2017-Sep-12 04:00N 35°10' E 139°47'4 9.0
2017-Sep-12 03:31N 35°05' E 139°46'5 9.4
2017-Sep-12 03:00N 35°02' E 139°42'5 9.6
2017-Sep-12 02:30N 34°59' E 139°38'510.5
2017-Sep-12 02:00N 34°55' E 139°33'4 8.2
2017-Sep-12 01:28N 34°54' E 139°28'  
2017-Sep-08 06:41N 37°44' E 121°50'10 0.5
2017-Sep-07 12:11N 37°45' E 121°38'11 2.3
2017-Sep-07 07:12N 37°44' E 121°52'416.2
2017-Sep-07 06:57N 37°44' E 121°47'716.1
2017-Sep-07 06:30N 37°45' E 121°37'714.0
2017-Sep-07 06:00N 37°41' E 121°30'612.6
2017-Sep-07 05:30N 37°35' E 121°27'3 5.0
2017-Sep-07 04:53N 37°35' E 121°23'0 0.0
2017-Sep-07 04:28N 37°35' E 121°23'0 0.0
2017-Sep-07 03:59N 37°35' E 121°23'0 0.0
2017-Sep-07 03:23N 37°35' E 121°23'0 0.0
2017-Sep-07 02:52N 37°35' E 121°23'0 0.0
2017-Sep-07 02:29N 37°35' E 121°23'0 0.0
2017-Sep-07 01:59N 37°35' E 121°23'0 0.0
2017-Sep-07 01:28N 37°35' E 121°23'0 0.0
2017-Sep-07 00:47N 37°35' E 121°23'0 0.0
2017-Sep-07 00:29N 37°35' E 121°23'0 0.0
2017-Sep-06 23:58N 37°35' E 121°23'0 0.0
2017-Sep-06 23:29N 37°35' E 121°23'0 0.6
2017-Sep-06 23:01N 37°35' E 121°23'4 8.0
2017-Sep-06 22:30N 37°37' E 121°28'2 3.8
2017-Sep-06 22:00N 37°38' E 121°29'2 3.4
2017-Sep-06 21:27N 37°40' E 121°29'1 1.3
2017-Sep-06 20:57N 37°40' E 121°28'1 2.3
2017-Sep-06 20:29N 37°41' E 121°29'714.4
2017-Sep-06 19:59N 37°49' E 121°29'714.6
2017-Sep-06 19:29N 37°56' E 121°31'1614.5
2017-Sep-06 18:23N 38°11' E 121°37'914.3
2017-Sep-06 17:44N 38°20' E 121°40'314.0
2017-Sep-06 17:30N 38°22' E 121°43'714.4
2017-Sep-06 17:00N 38°27' E 121°49'714.8
2017-Sep-06 16:30N 38°34' E 121°54'713.6
2017-Sep-06 16:00N 38°40' E 121°51'815.1
2017-Sep-06 15:30N 38°47' E 121°55'6 0.5
2017-Sep-06 01:30N 38°53' E 121°56'1 2.5
2017-Sep-06 00:55N 38°52' E 121°57'2 6.1
2017-Sep-06 00:30N 38°51' E 121°60'1514.4
2017-Sep-05 23:29N 38°38' E 122°09'  
Track history (hours):
 
Tides and Currents Weather Stations Pressure Air Temp Water Temp Dewpoint Dewpoint Depression Visibility Wind Speed Wind Dir Waves Ship Positions

Pegasus Peta

Last reported at 2017-Sep-15 16:02 UTC. Time now 2017-Sep-20 01:57 UTC.
Position N 34°34' E 134°47'.

Length 146 m; draft 7.8 m.

Type: Cargo ship. MMSI: 538005864.

Date/timePositionNaut miles runAvg speedWind from/ knotsBaromVisibWave heightAir tempDewpointWater temp
2017-Sep-15 16:02N 34°34' E 134°47'816.0
2017-Sep-15 15:34N 34°37' E 134°55'116.0
2017-Sep-15 15:30N 34°37' E 134°56'713.3
2017-Sep-15 15:01N 34°36' E 135°04'713.8
2017-Sep-15 14:30N 34°29' E 135°04'815.3
2017-Sep-15 13:59N 34°21' E 135°01'613.2
2017-Sep-15 13:30N 34°15' E 134°60'713.5
2017-Sep-15 13:00N 34°13' E 135°08'1 1.5
2017-Sep-15 12:28N 34°12' E 135°09'0 0.0
2017-Sep-15 11:58N 34°12' E 135°09'0 0.0
2017-Sep-15 11:25N 34°12' E 135°09'0 0.0
2017-Sep-15 10:58N 34°12' E 135°09'0 0.0
2017-Sep-15 10:28N 34°12' E 135°09'0 0.6
2017-Sep-15 10:00N 34°13' E 135°08'3 6.3
2017-Sep-15 09:30N 34°12' E 135°05'1 1.3
2017-Sep-15 09:00N 34°11' E 135°04'3 6.3
2017-Sep-15 08:30N 34°08' E 135°03'816.1
2017-Sep-15 08:00N 34°00' E 135°02'220 5.9
2017-Sep-13 18:42N 34°53' E 139°20'414.5
2017-Sep-13 18:25N 34°56' E 139°25'614.9
2017-Sep-13 18:00N 34°59' E 139°31'714.9
2017-Sep-13 17:30N 35°04' E 139°38'714.7
2017-Sep-13 17:00N 35°09' E 139°44'713.1
2017-Sep-13 16:30N 35°15' E 139°46'611.9
2017-Sep-13 16:01N 35°20' E 139°42'612.4
2017-Sep-13 15:30N 35°26' E 139°42'1 1.8
2017-Sep-13 15:00N 35°26' E 139°41'0 0.0
2017-Sep-13 14:30N 35°26' E 139°41'0 0.0
2017-Sep-13 14:00N 35°26' E 139°41'0 0.0
2017-Sep-13 13:30N 35°26' E 139°41'0 0.0
2017-Sep-13 13:00N 35°26' E 139°41'0 0.0
2017-Sep-13 12:30N 35°26' E 139°41'0 0.0
2017-Sep-13 12:00N 35°26' E 139°41'0 0.0
2017-Sep-13 11:30N 35°26' E 139°41'0 0.0
2017-Sep-13 11:00N 35°26' E 139°41'0 0.0
2017-Sep-13 10:30N 35°26' E 139°41'0 0.0
2017-Sep-13 10:00N 35°26' E 139°41'0 0.0
2017-Sep-13 09:30N 35°26' E 139°41'0 0.0
2017-Sep-13 09:00N 35°26' E 139°41'0 0.0
2017-Sep-13 08:30N 35°26' E 139°41'1 1.2
2017-Sep-13 08:01N 35°27' E 139°41'1 1.9
2017-Sep-13 07:25N 35°26' E 139°42'0 0.2
2017-Sep-13 06:58N 35°26' E 139°42'0 0.0
2017-Sep-13 06:28N 35°26' E 139°42'0 0.0
2017-Sep-13 05:58N 35°26' E 139°42'0 0.1
2017-Sep-13 05:28N 35°26' E 139°42'0 0.0
2017-Sep-13 04:58N 35°26' E 139°42'0 0.0
2017-Sep-13 04:29N 35°26' E 139°42'0 0.0
2017-Sep-13 03:58N 35°26' E 139°42'0 0.0
2017-Sep-13 03:28N 35°26' E 139°42'0 0.0
2017-Sep-13 02:58N 35°26' E 139°42'0 0.0
2017-Sep-13 02:28N 35°26' E 139°42'0 0.0
2017-Sep-13 01:55N 35°26' E 139°42'0 0.0
2017-Sep-13 01:25N 35°26' E 139°42'0 0.0
2017-Sep-13 00:58N 35°26' E 139°42'0 0.0
2017-Sep-13 00:28N 35°26' E 139°42'0 0.0
2017-Sep-12 23:58N 35°26' E 139°42'0 0.0
2017-Sep-12 23:28N 35°26' E 139°42'0 0.1
2017-Sep-12 22:58N 35°26' E 139°42'0 0.0
2017-Sep-12 22:28N 35°26' E 139°42'0 0.0
2017-Sep-12 21:58N 35°26' E 139°42'0 0.0
2017-Sep-12 21:25N 35°26' E 139°42'0 0.0
2017-Sep-12 20:49N 35°26' E 139°42'0 0.0
2017-Sep-12 20:28N 35°26' E 139°42'0 0.0
2017-Sep-12 19:58N 35°26' E 139°42'0 0.0
2017-Sep-12 19:28N 35°26' E 139°42'0 0.1
2017-Sep-12 18:55N 35°26' E 139°42'0 0.0
2017-Sep-12 18:28N 35°26' E 139°42'0 0.1
2017-Sep-12 17:58N 35°26' E 139°42'0 0.1
2017-Sep-12 17:28N 35°26' E 139°42'1 2.9
2017-Sep-12 17:00N 35°26' E 139°44'612.1
2017-Sep-12 16:30N 35°29' E 139°50'612.2
2017-Sep-12 16:00N 35°35' E 139°48'3 6.4
2017-Sep-12 15:30N 35°37' E 139°46'0 0.0
2017-Sep-12 14:59N 35°37' E 139°46'0 0.0
2017-Sep-12 14:29N 35°37' E 139°46'0 0.0
2017-Sep-12 13:56N 35°37' E 139°46'0 0.0
2017-Sep-12 13:26N 35°37' E 139°46'0 0.0
2017-Sep-12 12:50N 35°37' E 139°46'0 0.0
2017-Sep-12 12:26N 35°37' E 139°46'0 0.0
2017-Sep-12 11:56N 35°37' E 139°46'0 0.0
2017-Sep-12 11:29N 35°37' E 139°46'0 0.0
2017-Sep-12 10:56N 35°37' E 139°46'0 0.0
2017-Sep-12 10:29N 35°37' E 139°46'0 0.0
2017-Sep-12 09:56N 35°37' E 139°46'0 0.0
2017-Sep-12 09:26N 35°37' E 139°46'0 0.0
2017-Sep-12 08:56N 35°37' E 139°46'0 0.0
2017-Sep-12 08:26N 35°37' E 139°46'0 0.0
2017-Sep-12 07:59N 35°37' E 139°46'0 0.0
2017-Sep-12 07:29N 35°37' E 139°46'2 4.7
2017-Sep-12 07:00N 35°35' E 139°47'510.8
2017-Sep-12 06:31N 35°32' E 139°52'4 7.1
2017-Sep-12 06:00N 35°28' E 139°51'4 8.8
2017-Sep-12 05:31N 35°25' E 139°48'611.3
2017-Sep-12 05:01N 35°20' E 139°45'510.3
2017-Sep-12 04:31N 35°16' E 139°47'611.4
2017-Sep-12 04:00N 35°10' E 139°47'4 9.0
2017-Sep-12 03:31N 35°05' E 139°46'5 9.4
2017-Sep-12 03:00N 35°02' E 139°42'5 9.6
2017-Sep-12 02:30N 34°59' E 139°38'510.5
2017-Sep-12 02:00N 34°55' E 139°33'4 8.2
2017-Sep-12 01:28N 34°54' E 139°28'  
2017-Sep-08 06:41N 37°44' E 121°50'10 0.5
2017-Sep-07 12:11N 37°45' E 121°38'11 2.3
2017-Sep-07 07:12N 37°44' E 121°52'416.2
2017-Sep-07 06:57N 37°44' E 121°47'716.1
2017-Sep-07 06:30N 37°45' E 121°37'714.0
2017-Sep-07 06:00N 37°41' E 121°30'612.6
2017-Sep-07 05:30N 37°35' E 121°27'3 5.0
2017-Sep-07 04:53N 37°35' E 121°23'0 0.0
2017-Sep-07 04:28N 37°35' E 121°23'0 0.0
2017-Sep-07 03:59N 37°35' E 121°23'0 0.0
2017-Sep-07 03:23N 37°35' E 121°23'0 0.0
2017-Sep-07 02:52N 37°35' E 121°23'0 0.0
2017-Sep-07 02:29N 37°35' E 121°23'0 0.0
2017-Sep-07 01:59N 37°35' E 121°23'0 0.0
2017-Sep-07 01:28N 37°35' E 121°23'0 0.0
2017-Sep-07 00:47N 37°35' E 121°23'0 0.0
2017-Sep-07 00:29N 37°35' E 121°23'0 0.0
2017-Sep-06 23:58N 37°35' E 121°23'0 0.0
2017-Sep-06 23:29N 37°35' E 121°23'0 0.6
2017-Sep-06 23:01N 37°35' E 121°23'4 8.0
2017-Sep-06 22:30N 37°37' E 121°28'2 3.8
2017-Sep-06 22:00N 37°38' E 121°29'2 3.4
2017-Sep-06 21:27N 37°40' E 121°29'1 1.3
2017-Sep-06 20:57N 37°40' E 121°28'1 2.3
2017-Sep-06 20:29N 37°41' E 121°29'714.4
2017-Sep-06 19:59N 37°49' E 121°29'714.6
2017-Sep-06 19:29N 37°56' E 121°31'1614.5
2017-Sep-06 18:23N 38°11' E 121°37'914.3
2017-Sep-06 17:44N 38°20' E 121°40'314.0
2017-Sep-06 17:30N 38°22' E 121°43'714.4
2017-Sep-06 17:00N 38°27' E 121°49'714.8
2017-Sep-06 16:30N 38°34' E 121°54'713.6
2017-Sep-06 16:00N 38°40' E 121°51'815.1
2017-Sep-06 15:30N 38°47' E 121°55'6 0.5
2017-Sep-06 01:30N 38°53' E 121°56'1 2.5
2017-Sep-06 00:55N 38°52' E 121°57'2 6.1
2017-Sep-06 00:30N 38°51' E 121°60'1514.4
2017-Sep-05 23:29N 38°38' E 122°09'  

Dump ship's entire track history